Time;durP1;ratioP1;P1;durP2;ratioP2;P2;SDS_P1;SDS_P2;PMS_P1;PMS_P2;Temp;Humidity;BMP_temperature;BMP_pressure;BME280_temperature;BME280_humidity;BME280_pressure;Samples;Min_cycle;Max_cycle;Signal;HPM_P1;HPM_P2
2024/01/16 00:00:03;;;;;;;6.25;2.90;;;16.60;76.90;;;;;;349644;28;972;-55
2024/01/16 00:00:14;;;;;;;7.47;2.78;;;16.60;76.90;;;;;;349681;28;1026;-55
2024/01/16 00:00:25;;;;;;;6.85;2.85;;;16.60;76.80;;;;;;349670;28;1011;-55
2024/01/16 00:00:36;;;;;;;7.28;2.97;;;16.50;76.90;;;;;;349689;28;1070;-54
2024/01/16 00:00:47;;;;;;;6.63;2.90;;;16.60;76.90;;;;;;349567;28;987;-55
2024/01/16 00:00:57;;;;;;;5.70;2.65;;;16.60;76.90;;;;;;349719;28;883;-55
2024/01/16 00:01:08;;;;;;;4.05;2.42;;;16.60;76.80;;;;;;349765;28;836;-55
2024/01/16 00:01:19;;;;;;;3.47;2.25;;;16.60;76.70;;;;;;349658;28;991;-55
2024/01/16 00:01:30;;;;;;;4.70;2.25;;;16.70;76.70;;;;;;349549;28;1599;-55
2024/01/16 00:01:44;;;;;;;4.95;2.53;;;16.60;76.50;;;;;;349718;28;820;-55
2024/01/16 00:01:56;;;;;;;6.20;2.80;;;16.70;76.30;;;;;;349689;28;1277;-55
2024/01/16 00:02:08;;;;;;;6.30;2.80;;;16.70;76.20;;;;;;349649;28;1078;-55
2024/01/16 00:02:18;;;;;;;6.68;2.88;;;16.70;76.30;;;;;;349641;28;936;-56
2024/01/16 00:02:29;;;;;;;6.10;2.72;;;16.60;76.40;;;;;;349676;28;1094;-55
2024/01/16 00:02:40;;;;;;;4.63;2.45;;;16.60;76.40;;;;;;349714;28;999;-55
2024/01/16 00:02:51;;;;;;;4.68;2.45;;;16.70;76.40;;;;;;349650;28;1238;-55
2024/01/16 00:03:02;;;;;;;4.38;2.30;;;16.60;76.30;;;;;;349582;28;1458;-55
2024/01/16 00:03:13;;;;;;;5.50;2.30;;;16.60;76.30;;;;;;349694;28;1028;-55
2024/01/16 00:03:23;;;;;;;5.80;2.40;;;16.70;76.30;;;;;;349711;28;813;-55
2024/01/16 00:03:34;;;;;;;5.88;2.60;;;16.70;76.30;;;;;;349641;28;1193;-57
2024/01/16 00:03:45;;;;;;;5.25;2.53;;;16.70;76.30;;;;;;349645;28;1074;-55
2024/01/16 00:03:56;;;;;;;5.20;2.53;;;16.70;76.30;;;;;;349669;28;968;-54
2024/01/16 00:04:07;;;;;;;5.33;2.50;;;16.70;76.30;;;;;;349627;28;1568;-57
2024/01/16 00:04:18;;;;;;;4.75;2.63;;;16.70;76.30;;;;;;349712;28;1970;-55
2024/01/16 00:04:30;;;;;;;6.05;2.60;;;16.70;76.30;;;;;;349588;28;1010;-55
2024/01/16 00:04:41;;;;;;;6.95;2.53;;;16.70;76.40;;;;;;349654;28;1019;-55
2024/01/16 00:04:52;;;;;;;7.30;2.38;;;16.70;76.30;;;;;;349708;28;995;-55
2024/01/16 00:05:03;;;;;;;5.50;2.20;;;16.70;76.30;;;;;;349684;28;1030;-55
2024/01/16 00:05:14;;;;;;;5.80;2.53;;;16.70;76.20;;;;;;349586;28;1046;-54
2024/01/16 00:05:25;;;;;;;5.90;2.87;;;16.70;76.20;;;;;;349752;28;844;-54
2024/01/16 00:05:36;;;;;;;6.18;3.05;;;16.70;76.20;;;;;;349658;28;1083;-54
2024/01/16 00:05:47;;;;;;;5.35;2.75;;;16.60;76.30;;;;;;349677;28;1134;-56
2024/01/16 00:05:58;;;;;;;4.78;2.50;;;16.60;76.40;;;;;;349613;28;945;-56
2024/01/16 00:06:08;;;;;;;4.50;2.40;;;16.60;76.40;;;;;;349627;28;1292;-56
2024/01/16 00:06:19;;;;;;;4.45;2.53;;;16.60;76.50;;;;;;349635;28;2251;-55
2024/01/16 00:06:30;;;;;;;5.55;2.67;;;16.60;76.40;;;;;;349680;28;955;-55
2024/01/16 00:06:42;;;;;;;6.87;2.80;;;16.60;76.40;;;;;;349580;28;1117;-55
2024/01/16 00:06:52;;;;;;;7.30;2.88;;;16.60;76.50;;;;;;349673;28;1848;-55
2024/01/16 00:07:04;;;;;;;7.38;2.90;;;16.60;76.50;;;;;;349673;28;1027;-55
2024/01/16 00:07:15;;;;;;;5.95;2.65;;;16.60;76.50;;;;;;349701;28;968;-54
2024/01/16 00:07:25;;;;;;;5.25;2.65;;;16.60;76.40;;;;;;349645;28;1089;-55
2024/01/16 00:07:39;;;;;;;5.25;2.78;;;16.70;76.30;;;;;;349703;28;887;-54
2024/01/16 00:07:50;;;;;;;5.90;2.65;;;16.60;76.10;;;;;;349589;28;1129;-55
2024/01/16 00:08:01;;;;;;;6.07;2.38;;;16.60;76.20;;;;;;349689;28;1075;-53
2024/01/16 00:08:12;;;;;;;5.88;2.53;;;16.60;76.20;;;;;;349675;28;979;-55
2024/01/16 00:08:23;;;;;;;6.07;2.80;;;16.60;76.10;;;;;;349599;28;1404;-54
2024/01/16 00:08:34;;;;;;;5.80;2.90;;;16.60;76.20;;;;;;349669;28;1078;-55
2024/01/16 00:08:44;;;;;;;5.30;2.75;;;16.60;76.30;;;;;;349688;28;825;-55
2024/01/16 00:08:55;;;;;;;5.18;2.60;;;16.60;76.40;;;;;;349610;28;1099;-56
2024/01/16 00:09:07;;;;;;;4.90;2.63;;;16.60;76.40;;;;;;349760;28;848;-55
2024/01/16 00:09:17;;;;;;;4.50;2.70;;;16.60;76.50;;;;;;349678;28;1086;-55
2024/01/16 00:09:28;;;;;;;4.97;2.80;;;16.60;76.50;;;;;;349553;28;1110;-54
2024/01/16 00:09:39;;;;;;;5.20;2.60;;;16.60;76.50;;;;;;349630;28;1154;-55
2024/01/16 00:09:52;;;;;;;5.60;2.47;;;16.60;76.40;;;;;;349663;28;1444;-55
2024/01/16 00:10:03;;;;;;;4.70;2.38;;;16.60;76.30;;;;;;349602;28;993;-55
2024/01/16 00:10:14;;;;;;;6.57;2.80;;;16.60;76.30;;;;;;349648;28;1668;-54
2024/01/16 00:10:25;;;;;;;6.38;2.80;;;16.60;76.20;;;;;;349621;28;1080;-56
2024/01/16 00:10:36;;;;;;;6.35;2.80;;;16.60;76.40;;;;;;349634;28;1083;-54
2024/01/16 00:10:47;;;;;;;5.18;2.72;;;16.60;76.50;;;;;;349627;28;979;-55
2024/01/16 00:10:57;;;;;;;6.22;2.75;;;16.60;76.60;;;;;;349625;28;1023;-55
2024/01/16 00:11:08;;;;;;;5.75;2.65;;;16.60;76.60;;;;;;349717;28;932;-54
2024/01/16 00:11:19;;;;;;;5.70;2.70;;;16.60;76.40;;;;;;349678;28;861;-55
2024/01/16 00:11:29;;;;;;;5.80;2.83;;;16.60;76.40;;;;;;349647;28;916;-55
2024/01/16 00:11:41;;;;;;;6.25;2.80;;;16.60;76.30;;;;;;349648;28;1177;-55
2024/01/16 00:11:52;;;;;;;6.60;2.70;;;16.60;76.20;;;;;;349649;28;1190;-55
2024/01/16 00:12:06;;;;;;;6.67;2.67;;;16.60;76.20;;;;;;349596;28;914;-55
2024/01/16 00:12:16;;;;;;;5.95;2.70;;;16.60;76.20;;;;;;349649;28;1197;-56
2024/01/16 00:12:27;;;;;;;5.78;2.85;;;16.60;76.30;;;;;;349694;28;1018;-55
2024/01/16 00:12:40;;;;;;;5.53;2.70;;;16.60;76.30;;;;;;349594;28;1077;-55
2024/01/16 00:12:50;;;;;;;6.95;2.53;;;16.60;76.30;;;;;;349717;28;991;-55
2024/01/16 00:13:01;;;;;;;7.28;2.45;;;16.60;76.30;;;;;;349660;28;1027;-55
2024/01/16 00:13:12;;;;;;;7.35;2.60;;;16.60;76.20;;;;;;349597;28;1031;-55
2024/01/16 00:13:23;;;;;;;6.18;2.60;;;16.60;76.30;;;;;;349687;28;915;-55
2024/01/16 00:13:34;;;;;;;6.70;2.60;;;16.60;76.40;;;;;;349642;28;1075;-55
2024/01/16 00:13:45;;;;;;;6.70;2.55;;;16.60;76.40;;;;;;349556;28;1107;-55
2024/01/16 00:13:56;;;;;;;5.20;2.75;;;16.60;76.40;;;;;;349660;28;1298;-55
2024/01/16 00:14:07;;;;;;;6.37;3.07;;;16.60;76.50;;;;;;349749;28;959;-55
2024/01/16 00:14:18;;;;;;;6.42;3.10;;;16.60;76.40;;;;;;349599;28;1133;-55
2024/01/16 00:14:29;;;;;;;6.93;3.10;;;16.60;76.40;;;;;;349692;28;829;-56
2024/01/16 00:14:40;;;;;;;6.00;3.08;;;16.60;76.60;;;;;;349664;28;868;-55
2024/01/16 00:14:50;;;;;;;7.03;2.97;;;16.60;76.80;;;;;;349600;28;1281;-55
2024/01/16 00:15:01;;;;;;;6.50;2.90;;;16.50;76.80;;;;;;349693;28;829;-55
2024/01/16 00:15:12;;;;;;;7.07;2.88;;;16.60;76.80;;;;;;349651;28;986;-55
2024/01/16 00:15:23;;;;;;;7.32;2.85;;;16.60;76.80;;;;;;349584;28;909;-55
2024/01/16 00:15:34;;;;;;;9.15;3.13;;;16.60;76.80;;;;;;349672;28;1066;-55
2024/01/16 00:15:44;;;;;;;7.95;3.35;;;16.60;76.80;;;;;;349650;28;1149;-56
2024/01/16 00:15:58;;;;;;;7.47;3.35;;;16.60;76.70;;;;;;349677;28;1136;-56
2024/01/16 00:16:09;;;;;;;6.00;3.03;;;16.60;76.70;;;;;;349576;28;1914;-55
2024/01/16 00:16:19;;;;;;;6.00;2.97;;;16.70;76.60;;;;;;349667;28;1015;-56
2024/01/16 00:16:30;;;;;;;5.80;3.00;;;16.60;76.40;;;;;;349572;28;1613;-56
2024/01/16 00:16:46;;;;;;;6.18;3.10;;;16.60;76.50;;;;;;349720;28;1003;-54
2024/01/16 00:16:56;;;;;;;6.47;3.03;;;16.60;76.60;;;;;;349682;28;983;-56
2024/01/16 00:17:07;;;;;;;6.25;2.83;;;16.60;76.60;;;;;;349697;28;853;-55
2024/01/16 00:17:18;;;;;;;5.78;2.88;;;16.60;76.50;;;;;;349590;28;1029;-56
2024/01/16 00:17:29;;;;;;;6.53;3.20;;;16.60;76.50;;;;;;349646;28;1286;-55
2024/01/16 00:17:39;;;;;;;6.72;3.22;;;16.60;76.60;;;;;;349666;28;979;-56
2024/01/16 00:17:51;;;;;;;6.65;3.10;;;16.70;76.50;;;;;;349739;28;880;-56
2024/01/16 00:18:02;;;;;;;5.43;2.85;;;16.60;76.50;;;;;;349608;28;995;-55
2024/01/16 00:18:12;;;;;;;5.73;2.90;;;16.60;76.50;;;;;;349579;28;1030;-55
2024/01/16 00:18:23;;;;;;;6.35;2.90;;;16.70;76.50;;;;;;349689;28;987;-54
2024/01/16 00:18:34;;;;;;;7.05;2.90;;;16.60;76.50;;;;;;349690;28;817;-55
2024/01/16 00:18:45;;;;;;;6.70;2.70;;;16.60;76.50;;;;;;349647;28;991;-56
2024/01/16 00:18:56;;;;;;;5.18;2.65;;;16.60;76.50;;;;;;349700;28;872;-56
2024/01/16 00:19:07;;;;;;;4.95;2.90;;;16.50;76.70;;;;;;349557;28;995;-55
2024/01/16 00:19:17;;;;;;;5.10;2.90;;;16.50;76.90;;;;;;349648;28;1023;-57
2024/01/16 00:19:28;;;;;;;5.88;3.15;;;16.50;77.00;;;;;;349687;28;832;-54
2024/01/16 00:19:41;;;;;;;6.10;3.05;;;16.50;76.90;;;;;;349644;28;1169;-55
2024/01/16 00:19:51;;;;;;;6.53;3.15;;;16.50;76.90;;;;;;349606;28;1118;-55
2024/01/16 00:20:05;;;;;;;7.43;3.10;;;16.50;77.10;;;;;;349545;28;1959;-56
2024/01/16 00:20:15;;;;;;;7.47;2.83;;;16.50;77.10;;;;;;349678;28;857;-56
2024/01/16 00:20:26;;;;;;;7.70;2.80;;;16.50;77.00;;;;;;349614;28;1947;-55
2024/01/16 00:20:37;;;;;;;6.53;2.80;;;16.60;76.90;;;;;;349609;28;983;-55
2024/01/16 00:20:48;;;;;;;7.05;3.20;;;16.60;76.80;;;;;;349670;28;999;-55
2024/01/16 00:21:02;;;;;;;7.57;3.20;;;16.60;76.70;;;;;;349608;28;979;-55
2024/01/16 00:21:13;;;;;;;7.57;3.10;;;16.60;76.80;;;;;;349669;28;1030;-56
2024/01/16 00:21:23;;;;;;;8.00;3.13;;;16.60;76.90;;;;;;349664;28;893;-56
2024/01/16 00:21:39;;;;;;;8.60;3.13;;;16.60;76.90;;;;;;349695;28;837;-55
2024/01/16 00:21:51;;;;;;;7.43;3.20;;;16.60;76.80;;;;;;349626;28;1018;-55
2024/01/16 00:22:03;;;;;;;6.30;3.08;;;16.60;76.70;;;;;;349624;28;1134;-55
2024/01/16 00:22:14;;;;;;;5.57;2.67;;;16.60;76.70;;;;;;349640;28;1011;-55
2024/01/16 00:22:25;;;;;;;5.85;2.60;;;16.60;76.70;;;;;;349719;28;1027;-57
2024/01/16 00:22:36;;;;;;;5.70;2.58;;;16.60;76.60;;;;;;349553;28;898;-54
2024/01/16 00:22:47;;;;;;;6.30;2.65;;;16.60;76.60;;;;;;349633;28;1125;-55
2024/01/16 00:22:57;;;;;;;7.07;2.80;;;16.60;76.60;;;;;;349592;28;1448;-56
2024/01/16 00:23:08;;;;;;;8.10;2.83;;;16.70;76.70;;;;;;349681;28;1046;-56
2024/01/16 00:23:19;;;;;;;6.28;2.70;;;16.60;76.70;;;;;;349671;28;971;-55
2024/01/16 00:23:32;;;;;;;5.40;2.85;;;16.60;76.70;;;;;;349580;28;1062;-55
2024/01/16 00:23:43;;;;;;;5.50;2.85;;;16.60;76.80;;;;;;349665;28;1039;-55
2024/01/16 00:23:53;;;;;;;5.97;2.90;;;16.60;76.80;;;;;;349682;28;1038;-55
2024/01/16 00:24:04;;;;;;;6.07;2.80;;;16.70;76.80;;;;;;349689;28;919;-56
2024/01/16 00:24:15;;;;;;;5.45;2.80;;;16.60;76.70;;;;;;349626;28;943;-55
2024/01/16 00:24:26;;;;;;;6.32;3.00;;;16.60;76.80;;;;;;349539;28;1129;-55
2024/01/16 00:24:37;;;;;;;6.78;2.90;;;16.60;76.90;;;;;;349673;28;848;-54
2024/01/16 00:24:48;;;;;;;7.95;2.90;;;16.60;76.90;;;;;;349624;28;996;-55
2024/01/16 00:24:59;;;;;;;8.30;2.90;;;16.60;76.90;;;;;;349619;28;1518;-55
2024/01/16 00:25:10;;;;;;;8.32;3.10;;;16.60;76.90;;;;;;349659;28;1587;-54
2024/01/16 00:25:21;;;;;;;7.40;3.08;;;16.60;76.90;;;;;;349583;28;927;-54
2024/01/16 00:25:32;;;;;;;6.50;3.00;;;16.60;76.80;;;;;;349714;28;957;-54
2024/01/16 00:25:42;;;;;;;6.43;3.00;;;16.70;76.80;;;;;;349679;28;922;-55
2024/01/16 00:25:53;;;;;;;7.40;3.03;;;16.60;76.80;;;;;;349617;28;1452;-55
2024/01/16 00:26:04;;;;;;;7.03;2.80;;;16.70;76.80;;;;;;349628;28;872;-55
2024/01/16 00:26:22;;;;;;;7.38;2.90;;;16.70;76.80;;;;;;349584;28;928;-55
2024/01/16 00:26:33;;;;;;;6.53;2.95;;;16.60;76.60;;;;;;349653;28;1090;-56
2024/01/16 00:26:43;;;;;;;5.63;2.80;;;16.70;76.60;;;;;;349655;28;903;-55
2024/01/16 00:26:54;;;;;;;5.95;2.67;;;16.70;76.50;;;;;;349719;28;1075;-56
2024/01/16 00:27:05;;;;;;;5.22;2.50;;;16.70;76.40;;;;;;349548;28;1007;-56
2024/01/16 00:27:16;;;;;;;5.33;2.50;;;16.70;76.40;;;;;;349685;28;1014;-55
2024/01/16 00:27:27;;;;;;;5.40;2.60;;;16.70;76.30;;;;;;349686;28;879;-56
2024/01/16 00:27:37;;;;;;;5.88;2.70;;;16.70;76.30;;;;;;349569;28;1066;-55
2024/01/16 00:27:48;;;;;;;5.60;2.75;;;16.70;76.20;;;;;;349642;28;956;-55
2024/01/16 00:27:59;;;;;;;5.40;2.78;;;16.70;76.20;;;;;;349675;28;1038;-55
2024/01/16 00:28:10;;;;;;;4.65;2.70;;;16.70;76.10;;;;;;349637;28;928;-55
2024/01/16 00:28:20;;;;;;;5.57;2.70;;;16.70;76.10;;;;;;349680;28;852;-56
2024/01/16 00:28:32;;;;;;;5.90;2.63;;;16.70;76.10;;;;;;349630;28;1074;-55
2024/01/16 00:28:43;;;;;;;6.55;2.70;;;16.70;76.10;;;;;;349535;28;1518;-56
2024/01/16 00:28:54;;;;;;;6.63;2.85;;;16.70;76.10;;;;;;349657;28;837;-55
2024/01/16 00:29:04;;;;;;;6.57;2.80;;;16.70;76.20;;;;;;349719;28;809;-55
2024/01/16 00:29:15;;;;;;;5.80;2.70;;;16.70;76.40;;;;;;349627;28;1074;-54
2024/01/16 00:29:26;;;;;;;6.00;2.70;;;16.70;76.40;;;;;;349593;28;996;-55
2024/01/16 00:29:38;;;;;;;5.55;2.70;;;16.70;76.40;;;;;;349608;28;987;-55
2024/01/16 00:29:49;;;;;;;6.72;2.72;;;16.70;76.50;;;;;;349582;28;927;-55
2024/01/16 00:29:59;;;;;;;7.18;2.83;;;16.70;76.50;;;;;;349659;28;1094;-55
2024/01/16 00:30:11;;;;;;;8.57;3.07;;;16.70;76.40;;;;;;349665;28;943;-56
2024/01/16 00:30:21;;;;;;;7.28;2.90;;;16.70;76.40;;;;;;349575;28;1027;-56
2024/01/16 00:30:33;;;;;;;6.00;2.67;;;16.70;76.40;;;;;;349669;28;1935;-55
2024/01/16 00:30:44;;;;;;;6.57;2.65;;;16.70;76.20;;;;;;349644;28;1083;-55
2024/01/16 00:30:55;;;;;;;6.32;2.65;;;16.70;76.30;;;;;;349565;28;1599;-55
2024/01/16 00:31:08;;;;;;;6.22;2.50;;;16.70;76.30;;;;;;349599;28;1090;-55
2024/01/16 00:31:19;;;;;;;6.25;2.28;;;16.70;76.30;;;;;;349664;28;947;-55
2024/01/16 00:31:30;;;;;;;6.65;2.40;;;16.70;76.30;;;;;;349512;28;1532;-55
2024/01/16 00:31:41;;;;;;;6.68;2.60;;;16.70;76.20;;;;;;349630;28;1011;-55
2024/01/16 00:31:52;;;;;;;5.40;2.40;;;16.70;76.40;;;;;;349665;28;963;-54
2024/01/16 00:32:03;;;;;;;6.07;2.40;;;16.70;76.50;;;;;;349568;28;1511;-56
2024/01/16 00:32:15;;;;;;;5.47;2.38;;;16.70;76.50;;;;;;349706;28;857;-55
2024/01/16 00:32:26;;;;;;;5.40;2.40;;;16.70;76.50;;;;;;349626;28;2006;-56
2024/01/16 00:32:38;;;;;;;4.93;2.40;;;16.70;76.50;;;;;;349650;28;1070;-55
2024/01/16 00:32:49;;;;;;;4.78;2.33;;;16.70;76.50;;;;;;349634;28;902;-56
2024/01/16 00:33:00;;;;;;;4.63;2.35;;;16.70;76.40;;;;;;349626;28;1063;-56
2024/01/16 00:33:12;;;;;;;5.17;2.30;;;16.70;76.30;;;;;;349661;28;1149;-55
2024/01/16 00:33:23;;;;;;;5.32;2.22;;;16.70;76.20;;;;;;349648;28;975;-56
2024/01/16 00:33:33;;;;;;;5.50;2.20;;;16.70;76.20;;;;;;349503;28;1062;-56
2024/01/16 00:33:44;;;;;;;4.65;2.20;;;16.70;76.30;;;;;;349627;28;1039;-56
2024/01/16 00:33:55;;;;;;;4.63;2.25;;;16.70;76.40;;;;;;349716;28;941;-55
2024/01/16 00:34:06;;;;;;;4.82;2.40;;;16.70;76.50;;;;;;349642;28;864;-56
2024/01/16 00:34:17;;;;;;;6.18;2.55;;;16.70;76.50;;;;;;349620;28;963;-55
2024/01/16 00:34:27;;;;;;;5.75;2.45;;;16.70;76.50;;;;;;349624;28;1019;-54
2024/01/16 00:34:41;;;;;;;5.90;2.40;;;16.60;76.50;;;;;;349631;28;1071;-55
2024/01/16 00:34:51;;;;;;;4.90;2.30;;;16.70;76.40;;;;;;349635;28;1516;-55
2024/01/16 00:35:03;;;;;;;5.07;2.40;;;16.70;76.60;;;;;;349523;28;1394;-55
2024/01/16 00:35:14;;;;;;;5.15;2.33;;;16.60;76.70;;;;;;349699;28;844;-54
2024/01/16 00:35:25;;;;;;;4.45;2.17;;;16.70;76.70;;;;;;349635;28;1130;-55
2024/01/16 00:35:36;;;;;;;5.35;2.20;;;16.60;76.70;;;;;;349652;28;801;-55
2024/01/16 00:35:47;;;;;;;5.70;2.30;;;16.70;76.70;;;;;;349555;28;2490;-56
2024/01/16 00:35:57;;;;;;;6.05;2.30;;;16.60;76.60;;;;;;349666;28;1079;-56
2024/01/16 00:36:08;;;;;;;5.63;2.40;;;16.70;76.60;;;;;;349576;28;1930;-56
2024/01/16 00:36:19;;;;;;;5.43;2.70;;;16.70;76.60;;;;;;349661;28;935;-55
2024/01/16 00:36:30;;;;;;;4.93;2.80;;;16.70;76.60;;;;;;349507;28;1083;-56
2024/01/16 00:36:41;;;;;;;4.72;2.70;;;16.70;76.60;;;;;;349677;28;952;-56
2024/01/16 00:36:52;;;;;;;4.97;2.60;;;16.70;76.70;;;;;;349705;28;875;-55
2024/01/16 00:37:03;;;;;;;5.35;2.47;;;16.70;76.70;;;;;;349597;28;1454;-55
2024/01/16 00:37:14;;;;;;;4.72;2.35;;;16.60;76.60;;;;;;349586;28;873;-55
2024/01/16 00:37:24;;;;;;;4.30;2.42;;;16.70;76.50;;;;;;349678;28;816;-55
2024/01/16 00:37:39;;;;;;;5.45;2.60;;;16.70;76.50;;;;;;349675;28;1863;-55
2024/01/16 00:37:50;;;;;;;5.75;2.40;;;16.70;76.50;;;;;;349562;28;1003;-56
2024/01/16 00:38:01;;;;;;;4.50;2.20;;;16.70;76.50;;;;;;349675;28;997;-56
2024/01/16 00:38:12;;;;;;;3.90;2.13;;;16.70;76.50;;;;;;349623;28;1110;-55
2024/01/16 00:38:22;;;;;;;3.80;2.17;;;16.70;76.50;;;;;;349571;28;1694;-55
2024/01/16 00:38:33;;;;;;;4.72;2.10;;;16.70;76.50;;;;;;349670;28;1604;-54
2024/01/16 00:38:45;;;;;;;5.78;2.15;;;16.70;76.40;;;;;;349692;28;884;-55
2024/01/16 00:38:56;;;;;;;6.45;2.33;;;16.70;76.40;;;;;;349619;28;1094;-55
2024/01/16 00:39:08;;;;;;;6.20;2.30;;;16.70;76.40;;;;;;349679;28;1003;-56
2024/01/16 00:39:18;;;;;;;5.47;2.20;;;16.70;76.30;;;;;;349582;28;992;-55
2024/01/16 00:39:29;;;;;;;5.28;2.20;;;16.70;76.40;;;;;;349676;28;939;-55
2024/01/16 00:39:40;;;;;;;5.55;2.22;;;16.70;76.50;;;;;;349607;28;1158;-55
2024/01/16 00:39:51;;;;;;;6.00;2.15;;;16.60;76.50;;;;;;349556;28;1597;-56
2024/01/16 00:40:04;;;;;;;6.72;2.25;;;16.70;76.40;;;;;;349662;28;1010;-54
2024/01/16 00:40:14;;;;;;;6.30;2.42;;;16.70;76.40;;;;;;349550;28;1008;-55
2024/01/16 00:40:25;;;;;;;5.70;2.25;;;16.70;76.40;;;;;;349626;28;1051;-55
2024/01/16 00:40:36;;;;;;;5.73;2.20;;;16.70;76.40;;;;;;349661;28;963;-55
2024/01/16 00:40:47;;;;;;;6.30;2.10;;;16.70;76.40;;;;;;349514;28;1247;-56
2024/01/16 00:40:57;;;;;;;6.38;2.20;;;16.70;76.30;;;;;;349622;28;1357;-55
2024/01/16 00:41:09;;;;;;;6.20;2.13;;;16.70;76.20;;;;;;349638;28;1075;-55
2024/01/16 00:41:19;;;;;;;5.28;2.03;;;16.70;76.20;;;;;;349554;28;1582;-55
2024/01/16 00:41:30;;;;;;;5.35;2.00;;;16.70;76.20;;;;;;349622;28;1003;-55
2024/01/16 00:41:41;;;;;;;5.47;2.28;;;16.70;76.10;;;;;;349680;28;853;-56
2024/01/16 00:41:52;;;;;;;4.80;2.30;;;16.70;76.20;;;;;;349540;28;902;-55
2024/01/16 00:42:03;;;;;;;4.80;2.30;;;16.70;76.10;;;;;;349608;28;976;-55
2024/01/16 00:42:14;;;;;;;4.43;2.25;;;16.70;76.10;;;;;;349602;28;1035;-55
2024/01/16 00:42:24;;;;;;;5.18;2.30;;;16.70;76.10;;;;;;349612;28;903;-56
2024/01/16 00:42:35;;;;;;;5.28;2.17;;;16.70;76.30;;;;;;349388;28;1675;-55
2024/01/16 00:42:46;;;;;;;5.30;2.10;;;16.60;76.30;;;;;;349566;28;1860;-56
2024/01/16 00:42:57;;;;;;;4.95;1.98;;;16.70;76.20;;;;;;349676;28;848;-54
2024/01/16 00:43:08;;;;;;;5.27;2.20;;;16.70;76.10;;;;;;349571;28;1154;-54
2024/01/16 00:43:19;;;;;;;6.22;2.40;;;16.70;76.20;;;;;;349628;28;979;-56
2024/01/16 00:43:30;;;;;;;6.10;2.38;;;16.60;76.20;;;;;;349582;28;910;-55
2024/01/16 00:43:41;;;;;;;6.67;2.40;;;16.60;76.30;;;;;;349621;28;1019;-55
2024/01/16 00:43:52;;;;;;;6.80;2.47;;;16.50;76.40;;;;;;349567;28;1075;-55
2024/01/16 00:44:03;;;;;;;5.03;2.40;;;16.50;76.70;;;;;;349603;28;1329;-55
2024/01/16 00:44:14;;;;;;;5.38;2.30;;;16.50;76.90;;;;;;349596;28;1030;-56
2024/01/16 00:44:24;;;;;;;4.95;2.15;;;16.50;76.90;;;;;;349618;28;1038;-55
2024/01/16 00:44:35;;;;;;;5.83;2.30;;;16.50;76.90;;;;;;349566;28;1103;-55
2024/01/16 00:44:46;;;;;;;6.18;2.45;;;16.50;76.90;;;;;;349636;28;1007;-56
2024/01/16 00:44:57;;;;;;;5.75;2.60;;;16.50;76.90;;;;;;349620;28;908;-56
2024/01/16 00:45:08;;;;;;;5.10;2.30;;;16.50;76.90;;;;;;349677;28;845;-55
2024/01/16 00:45:19;;;;;;;4.30;2.25;;;16.50;76.80;;;;;;349598;28;947;-54
2024/01/16 00:45:30;;;;;;;4.68;2.33;;;16.60;76.80;;;;;;349634;28;976;-55
2024/01/16 00:45:41;;;;;;;4.75;2.40;;;16.50;76.70;;;;;;349601;28;940;-54
2024/01/16 00:45:51;;;;;;;4.28;2.25;;;16.50;76.70;;;;;;349545;28;1111;-54
2024/01/16 00:46:02;;;;;;;4.07;2.00;;;16.60;76.70;;;;;;349489;28;1150;-55
2024/01/16 00:46:13;;;;;;;3.70;2.00;;;16.50;76.60;;;;;;349690;28;880;-55
2024/01/16 00:46:24;;;;;;;4.97;2.15;;;16.50;76.60;;;;;;349521;28;1011;-55
2024/01/16 00:46:35;;;;;;;5.27;2.20;;;16.60;76.60;;;;;;349624;28;833;-56
2024/01/16 00:46:45;;;;;;;5.63;2.10;;;16.60;76.60;;;;;;349580;28;1031;-55
2024/01/16 00:46:56;;;;;;;4.85;2.00;;;16.60;76.50;;;;;;349641;28;927;-55
2024/01/16 00:47:07;;;;;;;5.75;2.10;;;16.60;76.50;;;;;;349683;28;963;-55
2024/01/16 00:47:18;;;;;;;5.70;2.20;;;16.60;76.40;;;;;;349590;28;943;-54
2024/01/16 00:47:28;;;;;;;5.97;2.20;;;16.50;76.70;;;;;;349652;28;1070;-55
2024/01/16 00:47:39;;;;;;;5.95;2.40;;;16.50;76.70;;;;;;349547;28;975;-54
2024/01/16 00:47:50;;;;;;;6.70;2.53;;;16.50;76.80;;;;;;349651;28;816;-55
2024/01/16 00:48:01;;;;;;;5.97;2.38;;;16.50;76.80;;;;;;349590;28;977;-55
2024/01/16 00:48:13;;;;;;;5.67;2.20;;;16.60;76.70;;;;;;349674;28;975;-56
2024/01/16 00:48:24;;;;;;;4.72;2.13;;;16.60;76.70;;;;;;349567;28;901;-55
2024/01/16 00:48:36;;;;;;;4.90;2.25;;;16.60;76.70;;;;;;349552;28;1435;-55
2024/01/16 00:48:47;;;;;;;4.18;2.13;;;16.60;76.60;;;;;;349589;28;1003;-55
2024/01/16 00:48:58;;;;;;;4.55;2.10;;;16.60;76.40;;;;;;349610;28;1182;-55
2024/01/16 00:49:09;;;;;;;5.30;2.25;;;16.60;76.20;;;;;;349359;28;1149;-55
2024/01/16 00:49:20;;;;;;;5.82;2.45;;;16.60;76.30;;;;;;349469;28;1043;-55
2024/01/16 00:49:31;;;;;;;5.07;2.47;;;16.60;76.40;;;;;;349366;28;952;-55
2024/01/16 00:49:41;;;;;;;5.00;2.20;;;16.60;76.50;;;;;;349618;28;904;-54
2024/01/16 00:49:52;;;;;;;5.20;2.20;;;16.60;76.50;;;;;;349601;28;902;-54
2024/01/16 00:50:03;;;;;;;4.55;2.10;;;16.60;76.50;;;;;;349665;28;1098;-54
2024/01/16 00:50:14;;;;;;;4.60;2.15;;;16.60;76.50;;;;;;349567;28;970;-54
2024/01/16 00:50:26;;;;;;;5.07;2.20;;;16.60;76.40;;;;;;349672;28;774;-55
2024/01/16 00:50:37;;;;;;;5.35;2.25;;;16.60;76.40;;;;;;349544;28;1024;-55
2024/01/16 00:50:49;;;;;;;5.63;2.22;;;16.60;76.40;;;;;;349643;28;1070;-55
2024/01/16 00:50:59;;;;;;;4.63;2.10;;;16.60;76.40;;;;;;349576;28;926;-55
2024/01/16 00:51:10;;;;;;;5.30;2.30;;;16.60;76.30;;;;;;349642;28;801;-54
2024/01/16 00:51:21;;;;;;;4.85;2.40;;;16.60;76.30;;;;;;349601;28;1020;-55
2024/01/16 00:51:32;;;;;;;5.00;2.50;;;16.60;76.30;;;;;;349598;28;1161;-55
2024/01/16 00:51:43;;;;;;;4.63;2.20;;;16.60;76.20;;;;;;349523;28;1262;-54
2024/01/16 00:51:53;;;;;;;5.03;2.10;;;16.60;76.10;;;;;;349642;28;1146;-56
2024/01/16 00:52:04;;;;;;;5.60;2.20;;;16.60;76.10;;;;;;349654;28;809;-56
2024/01/16 00:52:15;;;;;;;6.00;2.33;;;16.70;76.20;;;;;;349643;28;1085;-55
2024/01/16 00:52:27;;;;;;;5.68;2.45;;;16.70;76.20;;;;;;349583;28;1018;-55
2024/01/16 00:52:37;;;;;;;6.60;2.55;;;16.60;76.20;;;;;;349639;28;1028;-56
2024/01/16 00:52:48;;;;;;;6.18;2.42;;;16.50;76.40;;;;;;349667;28;1070;-55
2024/01/16 00:52:59;;;;;;;5.30;2.30;;;16.50;76.70;;;;;;349691;28;848;-56
2024/01/16 00:53:09;;;;;;;4.37;2.13;;;16.50;76.80;;;;;;349514;28;1095;-55
2024/01/16 00:53:20;;;;;;;4.72;2.15;;;16.50;76.80;;;;;;349633;28;1161;-56
2024/01/16 00:53:31;;;;;;;4.43;2.10;;;16.50;76.80;;;;;;349665;28;1701;-55
2024/01/16 00:53:43;;;;;;;5.60;2.20;;;16.60;76.70;;;;;;349672;28;999;-55
2024/01/16 00:53:53;;;;;;;5.70;2.17;;;16.60;76.70;;;;;;349475;28;1242;-56
2024/01/16 00:54:06;;;;;;;5.53;2.30;;;16.60;76.60;;;;;;349639;28;1067;-56
2024/01/16 00:54:17;;;;;;;4.05;2.00;;;16.60;76.60;;;;;;349605;28;1043;-54
2024/01/16 00:54:27;;;;;;;5.10;2.10;;;16.60;76.60;;;;;;349586;28;1093;-55
2024/01/16 00:54:39;;;;;;;5.53;2.37;;;16.60;76.60;;;;;;349543;28;975;-55
2024/01/16 00:54:50;;;;;;;6.05;3.08;;;16.60;76.50;;;;;;349666;28;991;-55
2024/01/16 00:55:01;;;;;;;6.30;3.28;;;16.70;76.50;;;;;;349590;28;1161;-54
2024/01/16 00:55:12;;;;;;;6.70;3.05;;;16.60;76.50;;;;;;349596;28;1664;-55
2024/01/16 00:55:22;;;;;;;7.13;2.72;;;16.60;76.40;;;;;;349544;28;1110;-54
2024/01/16 00:55:33;;;;;;;7.90;2.53;;;16.70;76.40;;;;;;349662;28;1050;-55
2024/01/16 00:55:44;;;;;;;7.57;2.60;;;16.70;76.40;;;;;;349655;28;888;-54
2024/01/16 00:55:55;;;;;;;6.03;2.45;;;16.70;76.30;;;;;;349651;28;971;-55
2024/01/16 00:56:05;;;;;;;4.55;2.33;;;16.70;76.20;;;;;;349582;28;1036;-56
2024/01/16 00:56:16;;;;;;;3.95;2.05;;;16.70;75.90;;;;;;349577;28;1906;-55
2024/01/16 00:56:27;;;;;;;3.80;2.07;;;16.70;75.90;;;;;;349613;28;1107;-55
2024/01/16 00:56:38;;;;;;;4.18;2.03;;;16.70;76.10;;;;;;349595;28;979;-55
2024/01/16 00:56:49;;;;;;;4.57;2.00;;;16.70;76.20;;;;;;349531;28;916;-55
2024/01/16 00:56:59;;;;;;;5.20;2.13;;;16.60;76.20;;;;;;349573;28;1545;-55
2024/01/16 00:57:10;;;;;;;5.00;2.17;;;16.70;76.10;;;;;;349659;28;1066;-56
2024/01/16 00:57:21;;;;;;;4.57;2.30;;;16.60;76.20;;;;;;349650;28;975;-56
2024/01/16 00:57:32;;;;;;;4.57;2.20;;;16.60;76.10;;;;;;349547;28;1018;-55
2024/01/16 00:57:43;;;;;;;4.55;2.10;;;16.60;76.10;;;;;;349602;28;1028;-56
2024/01/16 00:57:54;;;;;;;5.50;2.10;;;16.60;76.10;;;;;;349658;28;980;-56
2024/01/16 00:58:04;;;;;;;4.72;1.90;;;16.60;76.30;;;;;;349560;28;926;-54
2024/01/16 00:58:15;;;;;;;4.72;2.20;;;16.60;76.30;;;;;;349567;28;1549;-55
2024/01/16 00:58:26;;;;;;;5.00;2.38;;;16.60;76.30;;;;;;349630;28;996;-56
2024/01/16 00:58:37;;;;;;;5.15;2.55;;;16.50;76.30;;;;;;349622;28;1115;-56
2024/01/16 00:58:48;;;;;;;5.82;2.55;;;16.60;76.40;;;;;;349673;28;976;-55
2024/01/16 00:58:59;;;;;;;5.88;2.42;;;16.60;76.30;;;;;;349679;28;908;-55
2024/01/16 00:59:09;;;;;;;5.32;2.38;;;16.50;76.40;;;;;;349610;28;872;-56
2024/01/16 00:59:20;;;;;;;4.93;2.20;;;16.60;76.50;;;;;;349663;28;770;-54
2024/01/16 00:59:31;;;;;;;5.05;2.08;;;16.50;76.30;;;;;;349567;28;1855;-55